Time;durP1;ratioP1;P1;durP2;ratioP2;P2;SDS_P1;SDS_P2;PMS_P1;PMS_P2;Temp;Humidity;BMP_temperature;BMP_pressure;BME280_temperature;BME280_humidity;BME280_pressure;Samples;Min_cycle;Max_cycle;Signal;HPM_P1;HPM_P2
2022/11/11 00:00:50;;;;;;;13.87;10.90;;;11.00;99.90;;;;;;5028614;28;20443;-69
2022/11/11 00:03:16;;;;;;;18.43;11.00;;;11.00;99.90;;;;;;5028221;28;20639;-69
2022/11/11 00:05:42;;;;;;;18.10;10.57;;;11.00;99.90;;;;;;5027164;28;20509;-67
2022/11/11 00:08:08;;;;;;;15.40;10.40;;;10.90;99.90;;;;;;5028676;28;20553;-68
2022/11/11 00:10:34;;;;;;;14.43;10.17;;;10.90;99.90;;;;;;5028011;28;20458;-68
2022/11/11 00:13:00;;;;;;;16.50;11.10;;;10.90;99.90;;;;;;5027193;28;20439;-68
2022/11/11 00:15:27;;;;;;;16.13;10.13;;;10.90;99.90;;;;;;5023972;28;20577;-68
2022/11/11 00:26:10;;;;;;;11.23;8.90;;;10.80;99.90;;;;;;5028179;28;20476;-68
2022/11/11 00:28:35;;;;;;;10.43;8.50;;;10.70;99.90;;;;;;5027755;28;20423;-69
2022/11/11 00:31:06;;;;;;;11.17;8.93;;;10.60;99.90;;;;;;5028366;28;20857;-68
2022/11/11 00:33:31;;;;;;;14.20;9.33;;;10.50;99.90;;;;;;5024837;28;20737;-68
2022/11/11 00:35:58;;;;;;;13.20;9.00;;;10.50;99.90;;;;;;5028266;28;20463;-68
2022/11/11 00:41:08;;;;;;;10.63;7.60;;;10.40;99.90;;;;;;5029826;28;20522;-68
2022/11/11 00:43:33;;;;;;;9.10;7.90;;;10.30;99.90;;;;;;5027968;28;20493;-68
2022/11/11 00:51:27;;;;;;;10.30;7.77;;;10.20;99.90;;;;;;5028801;28;20442;-67
2022/11/11 00:53:53;;;;;;;13.20;9.10;;;10.20;99.90;;;;;;5028283;28;20415;-69
2022/11/11 00:56:18;;;;;;;14.17;8.30;;;10.20;99.90;;;;;;5027691;28;20631;-67
2022/11/11 00:58:44;;;;;;;10.07;7.93;;;10.20;99.90;;;;;;5027489;28;20180;-68
2022/11/11 01:01:10;;;;;;;10.60;7.70;;;10.20;99.90;;;;;;5025129;28;20250;-67
2022/11/11 01:03:35;;;;;;;10.87;7.80;;;10.20;99.90;;;;;;5027190;28;20581;-68
2022/11/11 01:06:02;;;;;;;9.73;7.50;;;10.30;99.90;;;;;;5028268;28;20235;-68
2022/11/11 01:08:29;;;;;;;9.17;7.20;;;10.30;99.90;;;;;;5028480;28;20679;-69
2022/11/11 01:10:54;;;;;;;14.50;8.03;;;10.30;99.90;;;;;;5027856;28;20454;-68
2022/11/11 01:13:24;;;;;;;21.17;8.90;;;10.30;99.90;;;;;;5028594;28;20431;-69
2022/11/11 01:15:52;;;;;;;19.23;7.63;;;10.30;99.90;;;;;;5026075;28;20223;-69
2022/11/11 01:18:21;;;;;;;40.57;7.80;;;10.30;99.90;;;;;;5027045;28;20717;-69
2022/11/11 01:20:46;;;;;;;44.23;8.90;;;10.20;99.90;;;;;;5027138;28;21009;-70
2022/11/11 01:23:13;;;;;;;12.80;7.50;;;10.20;99.90;;;;;;5027507;28;20439;-68
2022/11/11 01:25:40;;;;;;;11.00;8.00;;;10.10;99.90;;;;;;5027204;28;20212;-68
2022/11/11 01:28:07;;;;;;;12.40;7.60;;;10.10;99.90;;;;;;5025688;28;20974;-71
2022/11/11 01:30:34;;;;;;;9.20;7.80;;;10.00;99.90;;;;;;5024890;28;20585;-69
2022/11/11 01:33:00;;;;;;;13.87;7.30;;;10.00;99.90;;;;;;5028303;28;20450;-69
2022/11/11 01:35:27;;;;;;;12.97;7.20;;;10.00;99.90;;;;;;5026483;28;20522;-70
2022/11/11 01:37:52;;;;;;;55.53;7.50;;;10.00;99.90;;;;;;5026203;28;20474;-70
2022/11/11 01:40:18;;;;;;;7.33;6.60;;;9.90;99.90;;;;;;5027652;28;21020;-69
2022/11/11 01:42:53;;;;;;;8.43;6.57;;;9.80;99.90;;;;;;5028657;28;20550;-70
2022/11/11 01:45:48;;;;;;;8.70;7.00;;;9.90;99.90;;;;;;5029511;28;20445;-69
2022/11/11 01:51:23;;;;;;;6.10;5.50;;;9.80;99.90;;;;;;5029435;28;20963;-70
2022/11/11 01:53:53;;;;;;;8.40;6.70;;;9.80;99.90;;;;;;5025398;28;20822;-70
2022/11/11 01:56:19;;;;;;;7.00;6.23;;;9.80;99.90;;;;;;5027345;28;20455;-70
2022/11/11 01:58:45;;;;;;;6.73;5.73;;;9.80;99.90;;;;;;5030926;28;20427;-70
2022/11/11 02:01:11;;;;;;;6.90;6.00;;;9.80;99.90;;;;;;5025909;28;20845;-70
2022/11/11 02:03:39;;;;;;;6.40;5.70;;;9.80;99.90;;;;;;5027010;28;20673;-66
2022/11/11 02:06:07;;;;;;;6.63;5.17;;;9.90;99.90;;;;;;5023627;28;20238;-68
2022/11/11 02:08:35;;;;;;;6.23;5.33;;;9.80;99.90;;;;;;5026646;28;20557;-69
2022/11/11 02:11:14;;;;;;;8.33;5.57;;;9.70;99.90;;;;;;5027025;28;20450;-69
2022/11/11 02:16:28;;;;;;;6.73;5.00;;;9.70;99.90;;;;;;5024008;28;20469;-70
2022/11/11 02:18:54;;;;;;;7.37;4.60;;;9.70;99.90;;;;;;5027486;28;20832;-70
2022/11/11 02:21:29;;;;;;;6.00;5.13;;;9.70;99.90;;;;;;5024467;28;20525;-70
2022/11/11 02:24:08;;;;;;;5.20;4.70;;;9.70;99.90;;;;;;5022552;28;20505;-68
2022/11/11 02:26:36;;;;;;;6.13;5.03;;;9.70;99.90;;;;;;5027946;28;20427;-69
2022/11/11 02:29:06;;;;;;;6.83;4.80;;;9.80;99.90;;;;;;5024588;28;20466;-69
2022/11/11 02:31:32;;;;;;;6.30;4.97;;;9.70;99.90;;;;;;5023429;28;20477;-69
2022/11/11 02:33:58;;;;;;;7.97;4.60;;;9.70;99.90;;;;;;5022050;28;20438;-69
2022/11/11 02:36:24;;;;;;;5.13;4.60;;;9.70;99.90;;;;;;5025392;28;20812;-69
2022/11/11 02:38:50;;;;;;;6.43;4.87;;;9.70;99.90;;;;;;5023129;28;20177;-70
2022/11/11 02:44:00;;;;;;;6.87;4.73;;;9.50;99.90;;;;;;5025340;28;20860;-70
2022/11/11 02:46:25;;;;;;;4.93;4.43;;;9.50;99.90;;;;;;5025399;28;20451;-68
2022/11/11 02:48:51;;;;;;;6.67;4.67;;;9.60;99.90;;;;;;5025663;28;20188;-68
2022/11/11 02:51:17;;;;;;;8.37;5.97;;;9.60;99.90;;;;;;5025828;28;20208;-70
2022/11/11 02:53:42;;;;;;;6.80;5.13;;;9.50;99.90;;;;;;5025120;28;20603;-70
2022/11/11 02:56:08;;;;;;;10.20;6.20;;;9.50;99.90;;;;;;5026284;28;20604;-69
2022/11/11 02:58:33;;;;;;;17.40;5.83;;;9.50;99.90;;;;;;5025288;28;20181;-70
2022/11/11 03:00:59;;;;;;;7.90;5.70;;;9.40;99.90;;;;;;5024623;28;20204;-70
2022/11/11 03:03:24;;;;;;;8.70;6.23;;;9.40;99.90;;;;;;5026463;28;20623;-69
2022/11/11 03:05:50;;;;;;;15.13;6.63;;;9.40;99.90;;;;;;5026019;28;20193;-70
2022/11/11 03:08:16;;;;;;;22.93;7.00;;;9.40;99.90;;;;;;5025618;28;20189;-69
2022/11/11 03:10:41;;;;;;;19.17;5.67;;;9.40;99.90;;;;;;5026523;28;20577;-69
2022/11/11 03:13:07;;;;;;;14.77;7.20;;;9.30;99.90;;;;;;5024511;28;20423;-69
2022/11/11 03:15:32;;;;;;;13.97;5.70;;;9.20;99.90;;;;;;5020920;28;20208;-67
2022/11/11 03:17:58;;;;;;;18.13;6.10;;;9.20;99.90;;;;;;5027245;28;20195;-69
2022/11/11 03:23:10;;;;;;;10.70;5.40;;;9.10;99.90;;;;;;5023959;28;20660;-69
2022/11/11 03:25:43;;;;;;;12.93;7.00;;;9.00;99.90;;;;;;5026187;28;20819;-70
2022/11/11 03:28:20;;;;;;;10.57;4.07;;;8.90;99.90;;;;;;5027096;28;20895;-70
2022/11/11 03:30:48;;;;;;;6.17;4.17;;;8.80;99.90;;;;;;5026342;28;20493;-68
2022/11/11 03:33:15;;;;;;;8.87;5.50;;;8.70;99.90;;;;;;5021537;28;20919;-69
2022/11/11 03:35:41;;;;;;;13.47;4.33;;;8.80;99.90;;;;;;5023797;28;20463;-68
2022/11/11 03:38:22;;;;;;;9.27;3.77;;;8.80;99.90;;;;;;5021195;28;20845;-69
2022/11/11 03:40:50;;;;;;;9.30;4.03;;;8.80;99.90;;;;;;5023958;28;20983;-70
2022/11/11 03:43:18;;;;;;;10.83;4.63;;;8.70;99.90;;;;;;5026407;28;20522;-69
2022/11/11 03:45:44;;;;;;;4.77;3.97;;;8.70;99.90;;;;;;5024248;28;20477;-69
2022/11/11 03:48:10;;;;;;;4.57;3.83;;;8.80;99.90;;;;;;5025163;28;20529;-69
2022/11/11 03:50:36;;;;;;;9.73;4.50;;;8.80;99.90;;;;;;5026524;28;20608;-70
2022/11/11 03:53:02;;;;;;;6.17;4.60;;;8.90;99.90;;;;;;5025180;28;20976;-70
2022/11/11 03:55:28;;;;;;;5.70;4.00;;;8.90;99.90;;;;;;5025072;28;20581;-68
2022/11/11 03:57:54;;;;;;;6.07;4.20;;;8.90;99.90;;;;;;5024248;28;20177;-69
2022/11/11 04:00:23;;;;;;;5.57;3.90;;;8.90;99.90;;;;;;5025303;28;20429;-67
2022/11/11 04:11:11;;;;;;;5.37;4.60;;;9.10;99.90;;;;;;5024000;28;20461;-69
2022/11/11 04:16:22;;;;;;;7.73;5.63;;;9.10;99.90;;;;;;5024003;28;20461;-69
2022/11/11 04:21:43;;;;;;;9.87;4.00;;;9.10;99.90;;;;;;5024781;28;20587;-67
2022/11/11 04:27:14;;;;;;;12.00;4.63;;;9.00;99.90;;;;;;4944735;28;20510;-68
2022/11/11 04:29:40;;;;;;;10.60;4.60;;;8.80;99.90;;;;;;5011829;28;20495;-68
2022/11/11 04:34:57;;;;;;;12.83;5.30;;;8.50;99.90;;;;;;5026949;28;20203;-69
2022/11/11 04:37:25;;;;;;;15.40;6.23;;;8.60;99.90;;;;;;5028884;28;20561;-69
2022/11/11 04:42:35;;;;;;;26.83;6.53;;;8.70;99.90;;;;;;5028131;28;20477;-70
2022/11/11 04:47:53;;;;;;;8.23;5.40;;;8.70;99.90;;;;;;5029052;28;21058;-70
2022/11/11 04:50:22;;;;;;;10.13;6.53;;;8.60;99.90;;;;;;5030009;28;20434;-69
2022/11/11 04:52:48;;;;;;;29.97;6.90;;;8.70;99.90;;;;;;5026796;28;20530;-70
2022/11/11 04:57:58;;;;;;;14.10;6.57;;;8.70;99.90;;;;;;5028728;28;20194;-70
2022/11/11 05:00:25;;;;;;;29.67;5.73;;;8.70;99.90;;;;;;5027165;28;20892;-68
2022/11/11 05:11:07;;;;;;;17.43;7.07;;;8.50;99.90;;;;;;5026326;28;20547;-70
2022/11/11 05:22:19;;;;;;;9.90;5.90;;;8.60;99.90;;;;;;5027464;28;20567;-69
2022/11/11 05:27:29;;;;;;;8.30;5.80;;;8.70;99.90;;;;;;5025240;28;20502;-69
2022/11/11 05:29:55;;;;;;;8.07;6.27;;;8.70;99.90;;;;;;5027074;28;20518;-70
2022/11/11 05:32:22;;;;;;;18.40;6.30;;;8.60;99.90;;;;;;5026637;28;20289;-69
2022/11/11 05:34:48;;;;;;;9.07;6.30;;;8.70;99.90;;;;;;5025682;28;20419;-70
2022/11/11 05:37:14;;;;;;;9.17;6.23;;;8.70;99.90;;;;;;5025442;28;20533;-70
2022/11/11 05:39:40;;;;;;;12.37;6.93;;;8.70;99.90;;;;;;5025152;28;20204;-69
2022/11/11 05:42:05;;;;;;;10.90;6.87;;;8.70;99.90;;;;;;5025660;28;20777;-67
2022/11/11 05:44:31;;;;;;;15.80;6.37;;;8.60;99.90;;;;;;5027995;28;20424;-68
2022/11/11 05:46:57;;;;;;;17.67;6.47;;;8.50;99.90;;;;;;5024501;28;20254;-70
2022/11/11 05:49:23;;;;;;;9.37;6.17;;;8.50;99.90;;;;;;5029955;28;20278;-69
2022/11/11 05:51:50;;;;;;;8.23;5.97;;;8.50;99.90;;;;;;5027606;28;20204;-69
2022/11/11 05:54:15;;;;;;;10.83;6.47;;;8.50;99.90;;;;;;5029317;28;20514;-69
2022/11/11 05:56:41;;;;;;;8.73;6.00;;;8.50;99.90;;;;;;5024104;28;20558;-68
2022/11/11 05:59:07;;;;;;;16.97;6.23;;;8.60;99.90;;;;;;5028208;28;20184;-70
2022/11/11 06:01:32;;;;;;;18.67;5.97;;;8.60;99.90;;;;;;5025616;28;21058;-70
2022/11/11 06:03:58;;;;;;;17.53;5.53;;;8.50;99.90;;;;;;5029243;28;20230;-69
2022/11/11 06:06:24;;;;;;;7.60;5.60;;;8.50;99.90;;;;;;5024792;28;20188;-69
2022/11/11 06:08:50;;;;;;;6.53;5.73;;;8.40;99.90;;;;;;5026748;28;20274;-69
2022/11/11 06:11:16;;;;;;;10.03;6.00;;;8.60;99.90;;;;;;5026763;28;20451;-67
2022/11/11 06:13:41;;;;;;;9.13;6.40;;;8.60;99.90;;;;;;5025146;28;20239;-69
2022/11/11 06:16:07;;;;;;;6.10;4.70;;;8.60;99.90;;;;;;5027065;28;20219;-70
2022/11/11 06:18:33;;;;;;;8.70;5.50;;;8.60;99.90;;;;;;5025971;28;20181;-70
2022/11/11 06:20:59;;;;;;;9.50;5.77;;;8.70;99.90;;;;;;5026351;28;20927;-70
2022/11/11 06:23:27;;;;;;;8.37;5.50;;;8.80;99.90;;;;;;5024971;28;20431;-70
2022/11/11 06:28:39;;;;;;;6.53;4.83;;;8.80;99.90;;;;;;5024271;28;20481;-69
2022/11/11 06:31:06;;;;;;;6.33;4.40;;;8.70;99.90;;;;;;5026989;28;21010;-69
2022/11/11 06:33:35;;;;;;;45.90;5.23;;;8.70;99.90;;;;;;5025163;28;20518;-68
2022/11/11 06:36:01;;;;;;;6.50;4.53;;;8.70;99.90;;;;;;5027675;28;20466;-68
2022/11/11 06:38:27;;;;;;;8.37;4.97;;;8.70;99.90;;;;;;5024366;28;20430;-68
2022/11/11 06:40:53;;;;;;;5.67;4.63;;;8.70;99.90;;;;;;5024024;28;20463;-70
2022/11/11 06:43:18;;;;;;;6.50;5.30;;;8.70;99.90;;;;;;5025521;28;20352;-68
2022/11/11 06:45:45;;;;;;;6.13;4.80;;;8.70;99.90;;;;;;5023371;28;20188;-68
2022/11/11 06:48:10;;;;;;;9.33;5.37;;;8.80;99.90;;;;;;5024872;28;20784;-68
2022/11/11 06:50:36;;;;;;;6.40;4.87;;;8.80;99.90;;;;;;5024744;28;20458;-69
2022/11/11 06:53:21;;;;;;;6.07;4.80;;;8.70;99.90;;;;;;5022829;28;20267;-69
2022/11/11 06:55:47;;;;;;;7.47;5.27;;;8.70;99.90;;;;;;5026701;28;20298;-69
2022/11/11 06:58:17;;;;;;;4.87;3.93;;;8.60;99.90;;;;;;5025746;28;20884;-70
2022/11/11 07:00:45;;;;;;;6.30;4.60;;;8.60;99.90;;;;;;5026242;28;20987;-70
2022/11/11 07:03:12;;;;;;;6.07;4.73;;;8.60;99.90;;;;;;5025523;28;20874;-68
2022/11/11 07:05:38;;;;;;;6.00;4.93;;;8.60;99.90;;;;;;5026428;28;20494;-70
2022/11/11 07:08:07;;;;;;;9.90;5.50;;;8.60;99.90;;;;;;5026729;28;20522;-67
2022/11/11 07:10:34;;;;;;;6.50;4.60;;;8.70;99.90;;;;;;5026355;28;20622;-69
2022/11/11 07:13:00;;;;;;;6.73;5.37;;;8.70;99.90;;;;;;5024617;28;20514;-70
2022/11/11 07:15:27;;;;;;;7.80;5.33;;;8.70;99.90;;;;;;5023713;28;20517;-70
2022/11/11 07:17:52;;;;;;;5.87;4.57;;;8.60;99.90;;;;;;5024744;28;20470;-69
2022/11/11 07:20:18;;;;;;;7.10;4.87;;;8.60;99.90;;;;;;5024348;28;20947;-69
2022/11/11 07:22:44;;;;;;;6.00;4.90;;;8.60;99.90;;;;;;5025699;28;20662;-70
2022/11/11 07:25:09;;;;;;;7.63;5.70;;;8.60;99.90;;;;;;5026979;28;20248;-70
2022/11/11 07:27:39;;;;;;;7.83;4.53;;;8.60;99.90;;;;;;5031144;28;20669;-68
2022/11/11 07:30:06;;;;;;;6.27;4.77;;;8.60;99.90;;;;;;5024609;28;20640;-69
2022/11/11 07:32:32;;;;;;;10.20;4.40;;;8.50;99.90;;;;;;5020768;28;20473;-69
2022/11/11 07:34:58;;;;;;;6.57;4.90;;;8.40;99.90;;;;;;5024746;28;20514;-70
2022/11/11 07:37:23;;;;;;;7.43;5.30;;;8.30;99.90;;;;;;5023591;28;20458;-68
2022/11/11 07:39:49;;;;;;;6.30;5.30;;;8.40;99.90;;;;;;5023725;28;20788;-70
2022/11/11 07:42:14;;;;;;;6.80;5.07;;;8.50;99.90;;;;;;5024678;28;20275;-68
2022/11/11 07:44:40;;;;;;;6.30;4.67;;;8.60;99.90;;;;;;5025135;28;20188;-67
2022/11/11 07:47:06;;;;;;;7.50;5.30;;;8.70;99.90;;;;;;5023582;28;20184;-70
2022/11/11 07:49:31;;;;;;;7.90;5.00;;;8.80;99.90;;;;;;5025934;28;20191;-69
2022/11/11 07:51:57;;;;;;;10.93;5.40;;;8.80;99.90;;;;;;5024664;28;20678;-70
2022/11/11 07:54:22;;;;;;;13.00;5.70;;;8.90;99.90;;;;;;5025295;28;20188;-68
2022/11/11 07:56:48;;;;;;;8.27;6.20;;;9.00;99.90;;;;;;5023895;28;20618;-69
2022/11/11 07:59:13;;;;;;;10.43;6.47;;;9.00;99.90;;;;;;5025778;28;20617;-70
2022/11/11 08:01:39;;;;;;;13.23;5.70;;;9.10;99.90;;;;;;5022655;28;20197;-70
2022/11/11 08:04:04;;;;;;;7.47;5.63;;;9.10;99.90;;;;;;5031767;28;20222;-70
2022/11/11 08:06:30;;;;;;;11.37;6.10;;;9.20;99.90;;;;;;5030885;28;20196;-69
2022/11/11 08:08:56;;;;;;;10.70;5.77;;;9.20;99.90;;;;;;5029160;28;20429;-67
2022/11/11 08:14:10;;;;;;;13.27;6.83;;;9.30;99.90;;;;;;5008044;28;20803;-70
2022/11/11 08:16:35;;;;;;;8.53;6.30;;;9.30;99.90;;;;;;5029157;28;20461;-69
2022/11/11 08:19:01;;;;;;;10.23;5.97;;;9.40;99.90;;;;;;5028041;28;20193;-69
2022/11/11 08:21:27;;;;;;;16.00;6.80;;;9.40;99.90;;;;;;5027569;28;20212;-69
2022/11/11 08:23:53;;;;;;;11.40;6.27;;;9.40;99.90;;;;;;5029137;28;20266;-68
2022/11/11 08:26:20;;;;;;;9.97;6.03;;;9.50;99.90;;;;;;5030148;28;20422;-70
2022/11/11 08:28:47;;;;;;;8.03;5.50;;;9.50;99.90;;;;;;5026187;28;20439;-69
2022/11/11 08:31:12;;;;;;;9.60;5.93;;;9.50;99.90;;;;;;5027283;28;20889;-69
2022/11/11 08:33:38;;;;;;;7.50;6.13;;;9.60;99.90;;;;;;5025366;28;20439;-69
2022/11/11 08:36:05;;;;;;;8.53;6.60;;;9.60;99.90;;;;;;5028199;28;20204;-69
2022/11/11 08:38:30;;;;;;;8.40;6.50;;;9.60;99.90;;;;;;5027050;28;20283;-69
2022/11/11 08:40:59;;;;;;;9.57;5.77;;;9.50;99.90;;;;;;5025180;28;20486;-69
2022/11/11 08:43:25;;;;;;;8.60;6.60;;;9.60;99.90;;;;;;5028561;28;20187;-69
2022/11/11 08:45:54;;;;;;;11.60;10.43;;;9.60;99.90;;;;;;5029064;28;20433;-69
2022/11/11 08:48:19;;;;;;;8.77;6.23;;;9.70;99.90;;;;;;5022242;28;20199;-70
2022/11/11 08:50:45;;;;;;;7.53;6.10;;;9.60;99.90;;;;;;5026851;28;21070;-68
2022/11/11 08:53:11;;;;;;;8.20;6.60;;;9.70;99.90;;;;;;5025158;28;20676;-69
2022/11/11 08:55:37;;;;;;;9.80;6.53;;;9.70;99.90;;;;;;5028871;28;20208;-70
2022/11/11 08:58:05;;;;;;;11.87;7.97;;;9.80;99.90;;;;;;5026528;28;20246;-70
2022/11/11 09:00:32;;;;;;;11.43;8.63;;;9.80;99.90;;;;;;5027985;28;20232;-69
2022/11/11 09:03:06;;;;;;;12.17;7.23;;;9.80;99.90;;;;;;5029028;28;20454;-67
2022/11/11 09:05:32;;;;;;;12.60;7.50;;;9.90;99.90;;;;;;5028089;28;20822;-68
2022/11/11 09:08:05;;;;;;;11.57;7.63;;;9.90;99.90;;;;;;5028208;28;20438;-69
2022/11/11 09:10:31;;;;;;;12.60;7.80;;;9.80;99.90;;;;;;5028563;28;20454;-69
2022/11/11 09:12:57;;;;;;;13.93;8.70;;;9.80;99.90;;;;;;5025533;28;20481;-68
2022/11/11 09:15:23;;;;;;;13.37;9.03;;;9.90;99.90;;;;;;5027641;28;20430;-69
2022/11/11 09:17:49;;;;;;;11.30;8.57;;;10.10;99.90;;;;;;5025136;28;20459;-70
2022/11/11 09:20:15;;;;;;;12.20;8.37;;;10.10;99.90;;;;;;5028480;28;20441;-70
2022/11/11 09:22:45;;;;;;;9.90;8.40;;;10.20;99.90;;;;;;5026008;28;20271;-70
2022/11/11 09:25:11;;;;;;;12.30;8.20;;;10.10;99.90;;;;;;5028265;28;20261;-69
2022/11/11 09:27:37;;;;;;;13.70;7.87;;;10.20;99.90;;;;;;5025217;28;20819;-68
2022/11/11 09:30:03;;;;;;;10.67;7.60;;;10.20;99.90;;;;;;5028952;28;20225;-70
2022/11/11 09:32:29;;;;;;;11.13;6.90;;;10.40;99.90;;;;;;5026044;28;20490;-68
2022/11/11 09:34:54;;;;;;;14.10;9.23;;;10.50;99.90;;;;;;5029158;28;20517;-68
2022/11/11 09:37:21;;;;;;;6.50;5.80;;;10.40;99.90;;;;;;5026775;28;20225;-68
2022/11/11 09:39:47;;;;;;;6.87;5.97;;;10.50;99.90;;;;;;5026186;28;20982;-69
2022/11/11 09:42:39;;;;;;;7.83;6.07;;;10.50;99.90;;;;;;5024661;28;20250;-68
2022/11/11 09:45:45;;;;;;;9.10;7.00;;;10.50;99.90;;;;;;5026460;28;20180;-68
2022/11/11 09:48:34;;;;;;;9.07;6.27;;;10.40;99.90;;;;;;5024967;28;20431;-70
2022/11/11 09:51:04;;;;;;;6.37;5.50;;;10.50;99.90;;;;;;5024549;28;20538;-70
2022/11/11 09:53:43;;;;;;;7.70;5.40;;;10.60;99.90;;;;;;5024470;28;20526;-69
2022/11/11 09:56:14;;;;;;;7.57;6.00;;;10.30;99.90;;;;;;5028127;28;20463;-68
2022/11/11 09:59:15;;;;;;;7.90;6.30;;;10.40;99.90;;;;;;5025793;28;20470;-71
2022/11/11 10:01:54;;;;;;;6.87;5.97;;;10.50;99.90;;;;;;5027418;28;20767;-68
2022/11/11 10:04:24;;;;;;;12.10;7.40;;;10.40;99.90;;;;;;5027192;28;21025;-69
2022/11/11 10:06:56;;;;;;;6.63;5.80;;;10.50;99.90;;;;;;5026918;28;20481;-70
2022/11/11 10:09:45;;;;;;;7.30;6.10;;;10.50;99.90;;;;;;5026621;28;20431;-67
2022/11/11 10:12:14;;;;;;;7.07;6.03;;;10.70;99.90;;;;;;5025378;28;20489;-70
2022/11/11 10:14:46;;;;;;;7.20;5.33;;;10.60;99.90;;;;;;5019959;28;20473;-68
2022/11/11 10:17:37;;;;;;;8.00;6.03;;;10.70;99.90;;;;;;5026833;28;20502;-68
2022/11/11 10:20:24;;;;;;;6.20;5.30;;;10.80;99.90;;;;;;5026039;28;20481;-69
2022/11/11 10:22:57;;;;;;;7.50;5.27;;;10.70;99.90;;;;;;5024990;28;20431;-68
2022/11/11 10:25:26;;;;;;;6.33;5.67;;;10.80;99.90;;;;;;5028432;28;20411;-69
2022/11/11 10:27:56;;;;;;;7.67;5.70;;;10.90;99.90;;;;;;5028261;28;20477;-67
2022/11/11 10:30:23;;;;;;;7.43;6.00;;;10.90;99.90;;;;;;5027919;28;20427;-67
2022/11/11 10:33:18;;;;;;;5.87;5.27;;;10.90;99.90;;;;;;5027880;28;20837;-67
2022/11/11 10:35:46;;;;;;;6.43;5.53;;;11.00;99.90;;;;;;5020557;28;20442;-67
2022/11/11 10:38:34;;;;;;;6.70;6.10;;;11.00;99.90;;;;;;5024014;28;20421;-67
2022/11/11 10:41:21;;;;;;;7.97;6.30;;;11.10;99.90;;;;;;5024370;28;20447;-68
2022/11/11 10:43:48;;;;;;;9.43;6.80;;;11.10;99.90;;;;;;5021892;28;20434;-67
2022/11/11 10:46:23;;;;;;;7.00;6.30;;;11.10;99.90;;;;;;5025471;28;20898;-67
2022/11/11 10:49:06;;;;;;;8.13;6.77;;;11.10;99.90;;;;;;5020286;28;20443;-68
2022/11/11 10:51:44;;;;;;;8.37;7.40;;;11.10;99.90;;;;;;5022080;28;20512;-70
2022/11/11 10:54:15;;;;;;;8.67;7.77;;;11.10;99.90;;;;;;5023700;28;20466;-70
2022/11/11 10:56:57;;;;;;;12.80;7.43;;;11.10;99.90;;;;;;5025012;28;20971;-67
2022/11/11 10:59:29;;;;;;;11.27;8.37;;;11.20;99.90;;;;;;5019855;28;20454;-68
2022/11/11 11:02:18;;;;;;;10.23;7.60;;;11.20;99.90;;;;;;5026792;28;20475;-70
2022/11/11 11:04:50;;;;;;;12.70;8.57;;;11.10;99.90;;;;;;5024882;28;20437;-68
2022/11/11 11:07:22;;;;;;;9.23;8.13;;;11.20;99.90;;;;;;5026881;28;21532;-69
2022/11/11 11:10:08;;;;;;;10.57;8.40;;;11.10;99.90;;;;;;5025121;28;20450;-70
2022/11/11 11:12:46;;;;;;;10.20;8.00;;;11.10;99.90;;;;;;5025404;28;20471;-67
2022/11/11 11:15:20;;;;;;;11.40;9.60;;;11.20;99.90;;;;;;5021386;28;20447;-70
2022/11/11 11:17:56;;;;;;;11.57;8.60;;;11.40;99.90;;;;;;5023694;28;20536;-69
2022/11/11 11:20:22;;;;;;;11.20;9.27;;;11.70;99.90;;;;;;5024006;28;20419;-69
2022/11/11 11:22:58;;;;;;;10.17;8.67;;;11.70;99.90;;;;;;5024179;28;20898;-70
2022/11/11 11:25:24;;;;;;;10.33;9.33;;;11.70;99.90;;;;;;5027598;28;20992;-70
2022/11/11 11:27:51;;;;;;;10.33;9.00;;;11.60;99.90;;;;;;5026028;28;20841;-68
2022/11/11 11:30:23;;;;;;;10.10;8.43;;;11.50;99.90;;;;;;5027294;28;20427;-69
2022/11/11 11:33:00;;;;;;;10.80;9.30;;;11.50;99.90;;;;;;5028286;28;20478;-68
2022/11/11 11:35:43;;;;;;;10.70;8.67;;;11.60;99.90;;;;;;5024103;28;20951;-70
2022/11/11 11:38:16;;;;;;;12.77;9.80;;;11.60;99.90;;;;;;5028098;28;20434;-70
2022/11/11 11:40:49;;;;;;;13.80;9.57;;;11.60;99.90;;;;;;5028274;28;20859;-69
2022/11/11 11:43:36;;;;;;;12.50;9.33;;;11.50;99.90;;;;;;5026243;28;20439;-70
2022/11/11 11:46:13;;;;;;;10.63;9.53;;;11.50;99.90;;;;;;5029012;28;20447;-70
2022/11/11 11:49:08;;;;;;;11.33;9.33;;;11.50;99.90;;;;;;5026403;28;20438;-70
2022/11/11 11:51:56;;;;;;;10.83;9.20;;;11.50;99.90;;;;;;5027630;28;20491;-70
2022/11/11 11:54:50;;;;;;;9.60;8.60;;;11.70;99.90;;;;;;5028748;28;20520;-70
2022/11/11 11:57:40;;;;;;;12.07;10.70;;;11.70;99.90;;;;;;5027765;28;20949;-69
2022/11/11 12:00:18;;;;;;;11.47;9.40;;;11.60;99.90;;;;;;5026295;28;20434;-67
2022/11/11 12:03:05;;;;;;;12.50;8.80;;;11.70;99.90;;;;;;5027336;28;20858;-69
2022/11/11 12:05:42;;;;;;;10.20;9.20;;;11.80;99.90;;;;;;5027803;28;20449;-70
2022/11/11 12:08:29;;;;;;;13.13;10.50;;;12.10;99.90;;;;;;5028865;28;20425;-69
2022/11/11 12:11:17;;;;;;;11.37;8.97;;;12.40;99.90;;;;;;5028723;28;20463;-70
2022/11/11 12:14:27;;;;;;;11.73;10.57;;;13.20;99.90;;;;;;5028616;28;20430;-70
2022/11/11 12:17:28;;;;;;;11.83;10.23;;;13.60;99.90;;;;;;5029904;28;20481;-70
2022/11/11 12:20:14;;;;;;;10.23;9.23;;;13.90;99.90;;;;;;5029355;28;20419;-69
2022/11/11 12:23:05;;;;;;;10.80;9.70;;;14.00;99.90;;;;;;5026079;28;20426;-67
2022/11/11 12:25:53;;;;;;;10.73;9.73;;;13.80;99.90;;;;;;5031073;28;20512;-67
2022/11/11 12:28:24;;;;;;;12.03;9.13;;;14.30;99.90;;;;;;5029039;28;20437;-69
2022/11/11 12:31:33;;;;;;;12.47;11.00;;;14.50;99.90;;;;;;5031006;28;20882;-67
2022/11/11 12:34:40;;;;;;;14.20;12.03;;;14.30;99.90;;;;;;4967020;28;20858;-68
2022/11/11 12:37:13;;;;;;;10.57;9.47;;;14.40;99.90;;;;;;5007077;28;21291;-67
2022/11/11 12:40:03;;;;;;;11.50;9.17;;;14.50;99.90;;;;;;5027661;28;20951;-70
2022/11/11 12:43:01;;;;;;;11.80;10.50;;;14.30;99.90;;;;;;5026300;28;20797;-69
2022/11/11 12:45:59;;;;;;;11.23;10.00;;;14.00;99.90;;;;;;5018337;28;20874;-69
2022/11/11 12:48:52;;;;;;;13.93;9.57;;;13.90;99.90;;;;;;5027481;28;20972;-69
2022/11/11 12:51:42;;;;;;;10.93;9.53;;;13.80;99.90;;;;;;5029012;28;20434;-68
2022/11/11 12:54:37;;;;;;;11.47;9.70;;;13.70;99.90;;;;;;5028676;28;21045;-69
2022/11/11 12:57:26;;;;;;;12.97;9.87;;;13.80;99.90;;;;;;5025628;28;21018;-70
2022/11/11 13:00:17;;;;;;;13.17;10.70;;;13.60;99.90;;;;;;5025274;28;20509;-70
2022/11/11 13:03:05;;;;;;;12.47;10.90;;;13.30;99.90;;;;;;5014594;28;20439;-69
2022/11/11 13:05:55;;;;;;;11.37;10.17;;;13.50;99.90;;;;;;5029767;28;20451;-69
2022/11/11 13:08:54;;;;;;;10.60;9.50;;;13.50;99.90;;;;;;5029030;28;20528;-69
2022/11/11 13:11:31;;;;;;;11.33;9.93;;;13.60;99.90;;;;;;5044064;28;20467;-67
2022/11/11 13:14:20;;;;;;;13.47;10.53;;;13.70;99.90;;;;;;5021938;28;20427;-67
2022/11/11 13:16:50;;;;;;;11.87;10.57;;;13.70;99.90;;;;;;5028046;28;20466;-67
2022/11/11 13:19:35;;;;;;;12.93;11.63;;;13.70;99.90;;;;;;5026468;28;20418;-68
2022/11/11 13:22:21;;;;;;;13.73;11.83;;;13.50;99.90;;;;;;5025421;28;20470;-68
2022/11/11 13:24:49;;;;;;;16.60;12.53;;;13.60;99.90;;;;;;5028094;28;20439;-67
2022/11/11 13:27:25;;;;;;;14.50;12.30;;;13.20;99.90;;;;;;5025545;28;20935;-68
2022/11/11 13:30:06;;;;;;;14.27;11.47;;;13.10;99.90;;;;;;5027850;28;20457;-68
2022/11/11 13:32:58;;;;;;;15.00;11.80;;;13.10;99.90;;;;;;5024418;28;20482;-68
2022/11/11 13:35:51;;;;;;;13.87;12.27;;;12.90;99.90;;;;;;5025919;28;20434;-67
2022/11/11 13:38:32;;;;;;;16.60;14.00;;;12.60;99.90;;;;;;5027097;28;20438;-67
2022/11/11 13:41:02;;;;;;;18.90;13.13;;;12.50;99.90;;;;;;5022507;28;20550;-67
2022/11/11 13:43:56;;;;;;;15.50;13.20;;;12.50;99.90;;;;;;5025532;28;20854;-67
2022/11/11 13:46:43;;;;;;;15.93;13.40;;;12.30;99.90;;;;;;5024064;28;20875;-68
2022/11/11 13:49:30;;;;;;;17.20;14.50;;;12.10;99.90;;;;;;5024989;28;20470;-68
2022/11/11 13:52:20;;;;;;;20.27;15.17;;;12.10;99.90;;;;;;5025762;28;20438;-69
2022/11/11 13:55:00;;;;;;;15.93;14.00;;;11.90;99.90;;;;;;5026764;28;20427;-68
2022/11/11 13:57:28;;;;;;;17.53;13.93;;;11.80;99.90;;;;;;5022581;28;20548;-68
2022/11/11 14:00:24;;;;;;;21.80;15.43;;;11.70;99.90;;;;;;5023383;28;20427;-67
2022/11/11 14:03:25;;;;;;;19.13;14.80;;;11.80;99.90;;;;;;5025971;28;20462;-67
2022/11/11 14:06:13;;;;;;;16.40;14.23;;;11.50;99.90;;;;;;5024998;28;20430;-69
2022/11/11 14:08:44;;;;;;;17.03;14.50;;;11.50;99.90;;;;;;5026838;28;20410;-69
2022/11/11 14:11:30;;;;;;;18.60;14.47;;;11.60;99.90;;;;;;5026403;28;20493;-68
2022/11/11 14:14:33;;;;;;;20.17;14.40;;;11.50;99.90;;;;;;5026427;28;20470;-68
2022/11/11 14:17:04;;;;;;;22.07;16.57;;;11.50;99.90;;;;;;5026166;28;20494;-69
2022/11/11 14:19:33;;;;;;;19.87;15.50;;;11.50;99.90;;;;;;5027101;28;20567;-68
2022/11/11 14:22:02;;;;;;;23.20;16.20;;;11.50;99.90;;;;;;5025454;28;20446;-68
2022/11/11 14:24:39;;;;;;;20.10;15.93;;;11.40;99.90;;;;;;5025837;28;20428;-68
2022/11/11 14:27:07;;;;;;;20.33;15.53;;;11.40;99.90;;;;;;5023174;28;20957;-69
2022/11/11 14:29:37;;;;;;;23.97;16.07;;;11.40;99.90;;;;;;5024937;28;20435;-69
2022/11/11 14:32:40;;;;;;;24.33;16.80;;;11.50;99.90;;;;;;5025552;28;20525;-69